sensor_id;sensor_type;location;lat;lon;timestamp;pressure;altitude;pressure_sealevel;temperature;humidity
30110;BME280;14965;50.660;13.226;2023-08-17T00:01:11;95258.47;;;17.68;100.00
30110;BME280;14965;50.660;13.226;2023-08-17T00:03:37;95256.91;;;17.67;100.00
30110;BME280;14965;50.660;13.226;2023-08-17T00:06:03;95253.06;;;17.65;100.00
30110;BME280;14965;50.660;13.226;2023-08-17T00:08:29;95251.97;;;17.62;100.00
30110;BME280;14965;50.660;13.226;2023-08-17T00:10:54;95240.53;;;17.60;100.00
30110;BME280;14965;50.660;13.226;2023-08-17T00:13:20;95248.59;;;17.58;100.00
30110;BME280;14965;50.660;13.226;2023-08-17T00:15:46;95245.50;;;17.56;100.00
30110;BME280;14965;50.660;13.226;2023-08-17T00:18:14;95248.75;;;17.55;100.00
30110;BME280;14965;50.660;13.226;2023-08-17T00:20:40;95240.38;;;17.55;100.00
30110;BME280;14965;50.660;13.226;2023-08-17T00:23:05;95246.44;;;17.53;100.00
30110;BME280;14965;50.660;13.226;2023-08-17T00:25:31;95248.47;;;17.53;100.00
30110;BME280;14965;50.660;13.226;2023-08-17T00:27:57;95240.56;;;17.51;100.00
30110;BME280;14965;50.660;13.226;2023-08-17T00:30:23;95228.03;;;17.47;100.00
30110;BME280;14965;50.660;13.226;2023-08-17T00:32:49;95234.84;;;17.46;100.00
30110;BME280;14965;50.660;13.226;2023-08-17T00:35:17;95240.63;;;17.42;100.00
30110;BME280;14965;50.660;13.226;2023-08-17T00:37:43;95227.16;;;17.40;100.00
30110;BME280;14965;50.660;13.226;2023-08-17T00:40:10;95235.41;;;17.35;100.00
30110;BME280;14965;50.660;13.226;2023-08-17T00:42:36;95227.06;;;17.26;100.00
30110;BME280;14965;50.660;13.226;2023-08-17T00:45:02;95217.03;;;17.19;100.00
30110;BME280;14965;50.660;13.226;2023-08-17T00:47:29;95211.63;;;17.15;100.00
30110;BME280;14965;50.660;13.226;2023-08-17T00:49:56;95208.22;;;17.11;100.00
30110;BME280;14965;50.660;13.226;2023-08-17T00:52:25;95193.97;;;17.09;100.00
30110;BME280;14965;50.660;13.226;2023-08-17T00:54:51;95194.28;;;17.11;100.00
30110;BME280;14965;50.660;13.226;2023-08-17T00:57:18;95210.09;;;17.14;100.00
30110;BME280;14965;50.660;13.226;2023-08-17T00:59:44;95203.53;;;17.17;100.00
30110;BME280;14965;50.660;13.226;2023-08-17T01:02:12;95204.78;;;17.16;100.00
30110;BME280;14965;50.660;13.226;2023-08-17T01:04:37;95199.69;;;17.15;100.00
30110;BME280;14965;50.660;13.226;2023-08-17T01:07:04;95198.16;;;17.14;100.00
30110;BME280;14965;50.660;13.226;2023-08-17T01:09:31;95197.84;;;17.12;100.00
30110;BME280;14965;50.660;13.226;2023-08-17T01:12:05;95202.34;;;17.09;100.00
30110;BME280;14965;50.660;13.226;2023-08-17T01:14:43;95204.34;;;17.09;100.00
30110;BME280;14965;50.660;13.226;2023-08-17T01:17:19;95206.56;;;17.05;100.00
30110;BME280;14965;50.660;13.226;2023-08-17T01:19:49;95196.34;;;17.02;100.00
30110;BME280;14965;50.660;13.226;2023-08-17T01:22:21;95195.28;;;16.99;100.00
30110;BME280;14965;50.660;13.226;2023-08-17T01:24:48;95197.47;;;16.95;100.00
30110;BME280;14965;50.660;13.226;2023-08-17T01:27:14;95194.38;;;16.93;100.00
30110;BME280;14965;50.660;13.226;2023-08-17T01:29:40;95190.50;;;16.90;100.00
30110;BME280;14965;50.660;13.226;2023-08-17T01:32:14;95190.50;;;16.90;100.00
30110;BME280;14965;50.660;13.226;2023-08-17T01:34:50;95198.09;;;16.90;100.00
30110;BME280;14965;50.660;13.226;2023-08-17T01:37:21;95203.38;;;16.88;100.00
30110;BME280;14965;50.660;13.226;2023-08-17T01:39:52;95206.03;;;16.82;100.00
30110;BME280;14965;50.660;13.226;2023-08-17T01:42:22;95204.97;;;16.80;100.00
30110;BME280;14965;50.660;13.226;2023-08-17T01:44:49;95210.09;;;16.81;100.00
30110;BME280;14965;50.660;13.226;2023-08-17T01:47:15;95211.31;;;16.80;100.00
30110;BME280;14965;50.660;13.226;2023-08-17T01:49:41;95216.88;;;16.80;100.00
30110;BME280;14965;50.660;13.226;2023-08-17T01:52:07;95212.44;;;16.74;100.00
30110;BME280;14965;50.660;13.226;2023-08-17T01:54:33;95218.91;;;16.71;100.00
30110;BME280;14965;50.660;13.226;2023-08-17T01:57:00;95209.50;;;16.68;100.00
30110;BME280;14965;50.660;13.226;2023-08-17T01:59:26;95206.69;;;16.68;100.00
30110;BME280;14965;50.660;13.226;2023-08-17T02:01:52;95225.75;;;16.69;100.00
30110;BME280;14965;50.660;13.226;2023-08-17T02:04:18;95228.84;;;16.62;100.00
30110;BME280;14965;50.660;13.226;2023-08-17T02:06:44;95229.19;;;16.55;100.00
30110;BME280;14965;50.660;13.226;2023-08-17T02:09:10;95231.06;;;16.49;100.00
30110;BME280;14965;50.660;13.226;2023-08-17T02:11:35;95219.16;;;16.49;100.00
30110;BME280;14965;50.660;13.226;2023-08-17T02:14:03;95224.56;;;16.52;100.00
30110;BME280;14965;50.660;13.226;2023-08-17T02:16:29;95225.63;;;16.55;100.00
30110;BME280;14965;50.660;13.226;2023-08-17T02:18:55;95229.66;;;16.54;100.00
30110;BME280;14965;50.660;13.226;2023-08-17T02:21:21;95216.97;;;16.53;100.00
30110;BME280;14965;50.660;13.226;2023-08-17T02:23:46;95224.09;;;16.54;100.00
30110;BME280;14965;50.660;13.226;2023-08-17T02:26:12;95205.34;;;16.54;100.00
30110;BME280;14965;50.660;13.226;2023-08-17T02:28:38;95215.25;;;16.55;100.00
30110;BME280;14965;50.660;13.226;2023-08-17T02:31:06;95214.47;;;16.55;100.00
30110;BME280;14965;50.660;13.226;2023-08-17T02:33:32;95207.34;;;16.54;100.00
30110;BME280;14965;50.660;13.226;2023-08-17T02:35:58;95209.38;;;16.53;100.00
30110;BME280;14965;50.660;13.226;2023-08-17T02:38:24;95205.03;;;16.52;100.00
30110;BME280;14965;50.660;13.226;2023-08-17T02:40:50;95205.03;;;16.52;100.00
30110;BME280;14965;50.660;13.226;2023-08-17T02:43:16;95192.53;;;16.48;100.00
30110;BME280;14965;50.660;13.226;2023-08-17T02:45:44;95201.81;;;16.44;100.00
30110;BME280;14965;50.660;13.226;2023-08-17T02:48:11;95197.47;;;16.43;100.00
30110;BME280;14965;50.660;13.226;2023-08-17T02:50:37;95197.00;;;16.45;100.00
30110;BME280;14965;50.660;13.226;2023-08-17T02:53:03;95194.97;;;16.46;100.00
30110;BME280;14965;50.660;13.226;2023-08-17T02:55:29;95197.31;;;16.47;100.00
30110;BME280;14965;50.660;13.226;2023-08-17T02:57:55;95198.53;;;16.46;100.00
30110;BME280;14965;50.660;13.226;2023-08-17T03:00:21;95211.41;;;16.43;100.00
30110;BME280;14965;50.660;13.226;2023-08-17T03:02:47;95204.16;;;16.37;100.00
30110;BME280;14965;50.660;13.226;2023-08-17T03:05:15;95199.50;;;16.34;100.00
30110;BME280;14965;50.660;13.226;2023-08-17T03:07:40;95197.69;;;16.31;100.00
30110;BME280;14965;50.660;13.226;2023-08-17T03:10:07;95189.00;;;16.29;100.00
30110;BME280;14965;50.660;13.226;2023-08-17T03:12:33;95186.84;;;16.24;100.00
30110;BME280;14965;50.660;13.226;2023-08-17T03:14:59;95190.56;;;16.21;100.00
30110;BME280;14965;50.660;13.226;2023-08-17T03:17:25;95180.81;;;16.16;100.00
30110;BME280;14965;50.660;13.226;2023-08-17T03:19:51;95187.31;;;16.13;100.00
30110;BME280;14965;50.660;13.226;2023-08-17T03:22:18;95189.03;;;16.10;100.00
30110;BME280;14965;50.660;13.226;2023-08-17T03:24:44;95193.22;;;16.06;100.00
30110;BME280;14965;50.660;13.226;2023-08-17T03:27:10;95187.19;;;16.07;100.00
30110;BME280;14965;50.660;13.226;2023-08-17T03:29:36;95183.47;;;16.10;100.00
30110;BME280;14965;50.660;13.226;2023-08-17T03:32:02;95183.00;;;16.12;100.00
30110;BME280;14965;50.660;13.226;2023-08-17T03:34:28;95182.69;;;16.10;100.00
30110;BME280;14965;50.660;13.226;2023-08-17T03:36:54;95188.44;;;16.06;100.00
30110;BME280;14965;50.660;13.226;2023-08-17T03:39:22;95182.25;;;16.02;100.00
30110;BME280;14965;50.660;13.226;2023-08-17T03:41:47;95184.25;;;16.02;100.00
30110;BME280;14965;50.660;13.226;2023-08-17T03:44:13;95185.19;;;15.99;100.00
30110;BME280;14965;50.660;13.226;2023-08-17T03:46:39;95194.94;;;15.94;100.00
30110;BME280;14965;50.660;13.226;2023-08-17T03:49:05;95194.81;;;15.88;100.00
30110;BME280;14965;50.660;13.226;2023-08-17T03:51:31;95202.97;;;15.92;100.00
30110;BME280;14965;50.660;13.226;2023-08-17T03:53:57;95203.16;;;15.98;100.00
30110;BME280;14965;50.660;13.226;2023-08-17T03:56:24;95202.19;;;16.01;100.00
30110;BME280;14965;50.660;13.226;2023-08-17T03:58:53;95213.19;;;16.04;100.00
30110;BME280;14965;50.660;13.226;2023-08-17T04:01:19;95238.88;;;16.08;100.00
30110;BME280;14965;50.660;13.226;2023-08-17T04:03:45;95259.63;;;16.07;100.00
30110;BME280;14965;50.660;13.226;2023-08-17T04:06:11;95257.31;;;16.06;100.00
30110;BME280;14965;50.660;13.226;2023-08-17T04:08:37;95246.31;;;16.11;100.00
30110;BME280;14965;50.660;13.226;2023-08-17T04:11:03;95264.56;;;16.22;100.00
30110;BME280;14965;50.660;13.226;2023-08-17T04:13:31;95277.72;;;16.30;100.00
30110;BME280;14965;50.660;13.226;2023-08-17T04:15:57;95278.78;;;16.33;100.00
30110;BME280;14965;50.660;13.226;2023-08-17T04:18:23;95282.69;;;16.35;100.00
30110;BME280;14965;50.660;13.226;2023-08-17T04:20:50;95296.59;;;16.44;100.00
30110;BME280;14965;50.660;13.226;2023-08-17T04:23:16;95289.75;;;16.55;100.00
30110;BME280;14965;50.660;13.226;2023-08-17T04:25:43;95273.47;;;16.62;100.00
30110;BME280;14965;50.660;13.226;2023-08-17T04:28:09;95266.31;;;16.71;100.00
30110;BME280;14965;50.660;13.226;2023-08-17T04:30:37;95272.22;;;16.82;100.00
30110;BME280;14965;50.660;13.226;2023-08-17T04:33:04;95288.16;;;16.90;100.00
30110;BME280;14965;50.660;13.226;2023-08-17T04:35:30;95274.47;;;17.02;100.00
30110;BME280;14965;50.660;13.226;2023-08-17T04:37:56;95286.50;;;17.17;100.00
30110;BME280;14965;50.660;13.226;2023-08-17T04:40:22;95297.97;;;17.52;100.00
30110;BME280;14965;50.660;13.226;2023-08-17T04:42:49;95293.63;;;18.23;100.00
30110;BME280;14965;50.660;13.226;2023-08-17T04:45:15;95299.22;;;19.06;100.00
30110;BME280;14965;50.660;13.226;2023-08-17T04:47:43;95293.06;;;19.52;100.00
30110;BME280;14965;50.660;13.226;2023-08-17T04:50:09;95293.56;;;19.36;100.00
30110;BME280;14965;50.660;13.226;2023-08-17T04:52:35;95280.59;;;19.03;100.00
30110;BME280;14965;50.660;13.226;2023-08-17T04:55:01;95282.72;;;18.79;100.00
30110;BME280;14965;50.660;13.226;2023-08-17T04:57:27;95282.59;;;18.58;100.00
30110;BME280;14965;50.660;13.226;2023-08-17T04:59:53;95277.44;;;18.42;100.00
30110;BME280;14965;50.660;13.226;2023-08-17T05:02:19;95276.69;;;18.27;100.00
30110;BME280;14965;50.660;13.226;2023-08-17T05:04:47;95269.13;;;18.18;100.00
30110;BME280;14965;50.660;13.226;2023-08-17T05:07:13;95274.59;;;18.12;100.00
30110;BME280;14965;50.660;13.226;2023-08-17T05:09:39;95278.66;;;18.11;100.00
30110;BME280;14965;50.660;13.226;2023-08-17T05:12:06;95282.72;;;18.10;100.00
30110;BME280;14965;50.660;13.226;2023-08-17T05:14:32;95282.72;;;18.10;100.00
30110;BME280;14965;50.660;13.226;2023-08-17T05:16:58;95293.09;;;18.10;100.00
30110;BME280;14965;50.660;13.226;2023-08-17T05:19:24;95292.63;;;18.11;100.00
30110;BME280;14965;50.660;13.226;2023-08-17T05:21:51;95288.59;;;18.12;100.00
30110;BME280;14965;50.660;13.226;2023-08-17T05:24:17;95303.50;;;18.09;100.00
30110;BME280;14965;50.660;13.226;2023-08-17T05:26:44;95307.91;;;18.01;100.00
30110;BME280;14965;50.660;13.226;2023-08-17T05:29:11;95308.41;;;18.00;100.00
30110;BME280;14965;50.660;13.226;2023-08-17T05:31:36;95298.00;;;18.00;100.00
30110;BME280;14965;50.660;13.226;2023-08-17T05:34:03;95299.84;;;18.03;100.00
30110;BME280;14965;50.660;13.226;2023-08-17T05:36:29;95296.09;;;18.06;100.00
30110;BME280;14965;50.660;13.226;2023-08-17T05:38:56;95306.31;;;18.09;100.00
30110;BME280;14965;50.660;13.226;2023-08-17T05:41:22;95309.88;;;18.10;100.00
30110;BME280;14965;50.660;13.226;2023-08-17T05:43:48;95294.75;;;18.16;100.00
30110;BME280;14965;50.660;13.226;2023-08-17T05:46:14;95302.03;;;18.23;100.00
30110;BME280;14965;50.660;13.226;2023-08-17T05:48:40;95299.81;;;18.27;100.00
30110;BME280;14965;50.660;13.226;2023-08-17T05:51:06;95296.34;;;18.32;100.00
30110;BME280;14965;50.660;13.226;2023-08-17T05:53:32;95309.16;;;18.39;100.00
30110;BME280;14965;50.660;13.226;2023-08-17T05:56:00;95308.22;;;18.42;100.00
30110;BME280;14965;50.660;13.226;2023-08-17T05:58:25;95309.47;;;18.41;100.00
30110;BME280;14965;50.660;13.226;2023-08-17T06:00:51;95316.59;;;18.42;100.00
30110;BME280;14965;50.660;13.226;2023-08-17T06:03:17;95316.16;;;18.44;100.00
30110;BME280;14965;50.660;13.226;2023-08-17T06:05:43;95303.97;;;18.47;100.00
30110;BME280;14965;50.660;13.226;2023-08-17T06:08:09;95311.41;;;18.50;100.00
30110;BME280;14965;50.660;13.226;2023-08-17T06:10:35;95308.13;;;18.51;100.00
30110;BME280;14965;50.660;13.226;2023-08-17T06:13:03;95302.25;;;18.49;100.00
30110;BME280;14965;50.660;13.226;2023-08-17T06:15:29;95300.41;;;18.46;100.00
30110;BME280;14965;50.660;13.226;2023-08-17T06:17:55;95299.25;;;18.38;100.00
30110;BME280;14965;50.660;13.226;2023-08-17T06:20:21;95298.84;;;18.30;100.00
30110;BME280;14965;50.660;13.226;2023-08-17T06:22:48;95303.84;;;18.26;100.00
30110;BME280;14965;50.660;13.226;2023-08-17T06:25:14;95294.88;;;18.22;100.00
30110;BME280;14965;50.660;13.226;2023-08-17T06:27:42;95301.72;;;18.21;100.00
30110;BME280;14965;50.660;13.226;2023-08-17T06:30:11;95302.97;;;18.20;100.00
30110;BME280;14965;50.660;13.226;2023-08-17T06:32:37;95307.47;;;18.17;100.00
30110;BME280;14965;50.660;13.226;2023-08-17T06:35:04;95298.81;;;18.15;100.00
30110;BME280;14965;50.660;13.226;2023-08-17T06:37:30;95298.31;;;18.17;100.00
30110;BME280;14965;50.660;13.226;2023-08-17T06:39:56;95294.41;;;18.24;100.00
30110;BME280;14965;50.660;13.226;2023-08-17T06:42:22;95293.56;;;18.32;100.00
30110;BME280;14965;50.660;13.226;2023-08-17T06:44:48;95290.75;;;18.47;100.00
30110;BME280;14965;50.660;13.226;2023-08-17T06:47:15;95284.69;;;18.63;100.00
30110;BME280;14965;50.660;13.226;2023-08-17T06:49:41;95278.56;;;18.74;100.00
30110;BME280;14965;50.660;13.226;2023-08-17T06:52:07;95275.97;;;18.71;100.00
30110;BME280;14965;50.660;13.226;2023-08-17T06:54:33;95275.97;;;18.71;100.00
30110;BME280;14965;50.660;13.226;2023-08-17T06:56:59;95281.44;;;18.65;100.00
30110;BME280;14965;50.660;13.226;2023-08-17T06:59:25;95277.06;;;18.64;100.00
30110;BME280;14965;50.660;13.226;2023-08-17T07:01:51;95275.28;;;18.76;100.00
30110;BME280;14965;50.660;13.226;2023-08-17T07:04:18;95282.34;;;18.86;100.00
30110;BME280;14965;50.660;13.226;2023-08-17T07:06:44;95286.28;;;18.94;100.00
30110;BME280;14965;50.660;13.226;2023-08-17T07:09:10;95289.56;;;18.92;100.00
30110;BME280;14965;50.660;13.226;2023-08-17T07:11:36;95287.06;;;18.95;100.00
30110;BME280;14965;50.660;13.226;2023-08-17T07:14:02;95272.88;;;18.98;100.00
30110;BME280;14965;50.660;13.226;2023-08-17T07:16:28;95279.69;;;19.12;100.00
30110;BME280;14965;50.660;13.226;2023-08-17T07:18:54;95280.84;;;19.20;100.00
30110;BME280;14965;50.660;13.226;2023-08-17T07:21:21;95283.72;;;19.26;100.00
30110;BME280;14965;50.660;13.226;2023-08-17T07:23:47;95289.31;;;19.26;100.00
30110;BME280;14965;50.660;13.226;2023-08-17T07:26:13;95280.13;;;19.40;100.00
30110;BME280;14965;50.660;13.226;2023-08-17T07:28:39;95275.25;;;19.55;100.00
30110;BME280;14965;50.660;13.226;2023-08-17T07:31:05;95271.53;;;19.79;100.00
30110;BME280;14965;50.660;13.226;2023-08-17T07:33:30;95272.56;;;20.02;100.00
30110;BME280;14965;50.660;13.226;2023-08-17T07:35:56;95272.13;;;20.29;100.00
30110;BME280;14965;50.660;13.226;2023-08-17T07:38:24;95270.78;;;20.45;100.00
30110;BME280;14965;50.660;13.226;2023-08-17T07:40:50;95272.28;;;20.93;99.66
30110;BME280;14965;50.660;13.226;2023-08-17T07:43:16;95274.16;;;21.33;97.97
30110;BME280;14965;50.660;13.226;2023-08-17T07:45:41;95272.34;;;21.67;96.90
30110;BME280;14965;50.660;13.226;2023-08-17T07:48:07;95266.66;;;22.04;94.00
30110;BME280;14965;50.660;13.226;2023-08-17T07:50:33;95273.38;;;22.24;89.07
30110;BME280;14965;50.660;13.226;2023-08-17T07:52:59;95274.44;;;22.32;87.98
30110;BME280;14965;50.660;13.226;2023-08-17T07:55:27;95272.94;;;22.42;88.17
30110;BME280;14965;50.660;13.226;2023-08-17T07:57:53;95264.22;;;22.29;88.07
30110;BME280;14965;50.660;13.226;2023-08-17T08:00:19;95266.03;;;21.83;88.79
30110;BME280;14965;50.660;13.226;2023-08-17T08:02:46;95262.56;;;22.05;89.67
30110;BME280;14965;50.660;13.226;2023-08-17T08:05:12;95256.84;;;22.48;88.27
30110;BME280;14965;50.660;13.226;2023-08-17T08:07:38;95257.16;;;22.84;84.46
30110;BME280;14965;50.660;13.226;2023-08-17T08:10:05;95258.22;;;23.15;84.65
30110;BME280;14965;50.660;13.226;2023-08-17T08:12:32;95246.16;;;23.48;82.02
30110;BME280;14965;50.660;13.226;2023-08-17T08:14:58;95253.03;;;23.80;80.93
30110;BME280;14965;50.660;13.226;2023-08-17T08:17:24;95258.03;;;24.16;78.97
30110;BME280;14965;50.660;13.226;2023-08-17T08:19:50;95244.97;;;24.13;77.18
30110;BME280;14965;50.660;13.226;2023-08-17T08:22:16;95241.44;;;23.95;78.74
30110;BME280;14965;50.660;13.226;2023-08-17T08:24:42;95241.44;;;23.95;78.88
30110;BME280;14965;50.660;13.226;2023-08-17T08:27:08;95239.66;;;23.92;79.56
30110;BME280;14965;50.660;13.226;2023-08-17T08:29:35;95240.69;;;23.89;78.77
30110;BME280;14965;50.660;13.226;2023-08-17T08:32:01;95229.97;;;23.76;78.58
30110;BME280;14965;50.660;13.226;2023-08-17T08:34:27;95235.63;;;23.59;80.70
30110;BME280;14965;50.660;13.226;2023-08-17T08:36:53;95227.16;;;23.59;80.68
30110;BME280;14965;50.660;13.226;2023-08-17T08:39:19;95237.16;;;23.72;82.30
30110;BME280;14965;50.660;13.226;2023-08-17T08:41:45;95245.31;;;23.86;82.29
30110;BME280;14965;50.660;13.226;2023-08-17T08:44:11;95236.56;;;24.01;79.63
30110;BME280;14965;50.660;13.226;2023-08-17T08:46:40;95240.09;;;24.13;79.79
30110;BME280;14965;50.660;13.226;2023-08-17T08:49:10;95244.13;;;24.29;79.51
30110;BME280;14965;50.660;13.226;2023-08-17T08:51:42;95234.09;;;24.39;78.33
30110;BME280;14965;50.660;13.226;2023-08-17T08:54:14;95233.84;;;24.31;76.19
30110;BME280;14965;50.660;13.226;2023-08-17T08:56:46;95230.78;;;24.29;78.14
30110;BME280;14965;50.660;13.226;2023-08-17T08:59:14;95229.53;;;24.25;75.84
30110;BME280;14965;50.660;13.226;2023-08-17T09:01:42;95221.84;;;24.20;76.49
30110;BME280;14965;50.660;13.226;2023-08-17T09:04:08;95224.38;;;24.29;77.78
30110;BME280;14965;50.660;13.226;2023-08-17T09:06:36;95228.19;;;24.43;76.25
30110;BME280;14965;50.660;13.226;2023-08-17T09:09:02;95221.28;;;24.38;76.43
30110;BME280;14965;50.660;13.226;2023-08-17T09:11:29;95225.00;;;24.05;77.75
30110;BME280;14965;50.660;13.226;2023-08-17T09:13:54;95230.44;;;23.92;78.37
30110;BME280;14965;50.660;13.226;2023-08-17T09:16:20;95225.25;;;24.01;79.19
30110;BME280;14965;50.660;13.226;2023-08-17T09:18:48;95227.97;;;24.24;78.03
30110;BME280;14965;50.660;13.226;2023-08-17T09:21:21;95220.75;;;24.40;77.83
30110;BME280;14965;50.660;13.226;2023-08-17T09:23:51;95221.34;;;24.16;76.36
30110;BME280;14965;50.660;13.226;2023-08-17T09:26:20;95219.41;;;23.88;78.89
30110;BME280;14965;50.660;13.226;2023-08-17T09:28:46;95212.31;;;23.70;81.15
30110;BME280;14965;50.660;13.226;2023-08-17T09:31:12;95219.44;;;23.77;81.60
30110;BME280;14965;50.660;13.226;2023-08-17T09:33:38;95211.47;;;23.92;81.07
30110;BME280;14965;50.660;13.226;2023-08-17T09:36:05;95213.69;;;24.10;83.07
30110;BME280;14965;50.660;13.226;2023-08-17T09:38:31;95215.34;;;24.36;80.00
30110;BME280;14965;50.660;13.226;2023-08-17T09:40:58;95219.22;;;24.39;77.79
30110;BME280;14965;50.660;13.226;2023-08-17T09:43:25;95214.94;;;24.21;81.26
30110;BME280;14965;50.660;13.226;2023-08-17T09:45:51;95216.19;;;24.25;79.95
30110;BME280;14965;50.660;13.226;2023-08-17T09:48:18;95203.75;;;24.45;79.42
30110;BME280;14965;50.660;13.226;2023-08-17T09:50:45;95206.00;;;24.58;75.40
30110;BME280;14965;50.660;13.226;2023-08-17T09:53:15;95207.97;;;24.69;75.56
30110;BME280;14965;50.660;13.226;2023-08-17T09:55:43;95202.16;;;24.91;75.59
30110;BME280;14965;50.660;13.226;2023-08-17T09:58:09;95191.06;;;25.29;75.32
30110;BME280;14965;50.660;13.226;2023-08-17T10:00:37;95204.03;;;25.68;73.22
30110;BME280;14965;50.660;13.226;2023-08-17T10:03:06;95202.50;;;25.91;71.76
30110;BME280;14965;50.660;13.226;2023-08-17T10:05:40;95199.94;;;26.12;70.57
30110;BME280;14965;50.660;13.226;2023-08-17T10:08:07;95201.72;;;26.34;70.22
30110;BME280;14965;50.660;13.226;2023-08-17T10:10:38;95198.97;;;26.47;68.64
30110;BME280;14965;50.660;13.226;2023-08-17T10:13:09;95206.63;;;26.52;68.17
30110;BME280;14965;50.660;13.226;2023-08-17T10:15:42;95203.09;;;26.27;66.94
30110;BME280;14965;50.660;13.226;2023-08-17T10:18:22;95202.84;;;26.06;69.50
30110;BME280;14965;50.660;13.226;2023-08-17T10:21:00;95198.09;;;26.15;69.49
30110;BME280;14965;50.660;13.226;2023-08-17T10:23:28;95198.34;;;26.36;70.06
30110;BME280;14965;50.660;13.226;2023-08-17T10:25:55;95200.50;;;26.48;68.23
30110;BME280;14965;50.660;13.226;2023-08-17T10:28:23;95204.03;;;26.54;67.53
30110;BME280;14965;50.660;13.226;2023-08-17T10:30:50;95195.16;;;26.64;67.25
30110;BME280;14965;50.660;13.226;2023-08-17T10:33:18;95194.97;;;26.75;66.20
30110;BME280;14965;50.660;13.226;2023-08-17T10:35:45;95203.69;;;26.77;66.87
30110;BME280;14965;50.660;13.226;2023-08-17T10:38:11;95195.41;;;26.79;66.39
30110;BME280;14965;50.660;13.226;2023-08-17T10:40:41;95204.66;;;26.79;65.90
30110;BME280;14965;50.660;13.226;2023-08-17T10:43:09;95204.25;;;26.75;65.34
30110;BME280;14965;50.660;13.226;2023-08-17T10:45:35;95209.66;;;26.73;65.74
30110;BME280;14965;50.660;13.226;2023-08-17T10:48:27;95205.47;;;26.80;64.60
30110;BME280;14965;50.660;13.226;2023-08-17T10:51:04;95200.91;;;26.90;63.39
30110;BME280;14965;50.660;13.226;2023-08-17T10:53:43;95197.03;;;27.06;61.43
30110;BME280;14965;50.660;13.226;2023-08-17T10:56:14;95204.75;;;27.25;63.10
30110;BME280;14965;50.660;13.226;2023-08-17T10:58:46;95202.16;;;27.40;61.98
30110;BME280;14965;50.660;13.226;2023-08-17T11:01:12;95199.44;;;27.48;62.40
30110;BME280;14965;50.660;13.226;2023-08-17T11:03:38;95195.19;;;27.41;61.00
30110;BME280;14965;50.660;13.226;2023-08-17T11:06:16;95196.91;;;27.18;61.00
30110;BME280;14965;50.660;13.226;2023-08-17T11:08:53;95192.06;;;27.13;60.72
30110;BME280;14965;50.660;13.226;2023-08-17T11:11:21;95191.88;;;27.24;61.61
30110;BME280;14965;50.660;13.226;2023-08-17T11:13:49;95192.34;;;27.41;62.66
30110;BME280;14965;50.660;13.226;2023-08-17T11:16:16;95194.53;;;27.62;61.11
30110;BME280;14965;50.660;13.226;2023-08-17T11:18:43;95190.66;;;27.78;59.96
30110;BME280;14965;50.660;13.226;2023-08-17T11:21:09;95185.28;;;27.88;58.60
30110;BME280;14965;50.660;13.226;2023-08-17T11:23:37;95188.47;;;27.97;58.35
30110;BME280;14965;50.660;13.226;2023-08-17T11:26:04;95189.97;;;28.12;58.68
30110;BME280;14965;50.660;13.226;2023-08-17T11:28:30;95180.34;;;28.28;57.74
30110;BME280;14965;50.660;13.226;2023-08-17T11:31:00;95175.00;;;28.24;55.00
30110;BME280;14965;50.660;13.226;2023-08-17T11:33:27;95179.91;;;28.24;56.81
30110;BME280;14965;50.660;13.226;2023-08-17T11:35:54;95178.81;;;28.27;56.93
30110;BME280;14965;50.660;13.226;2023-08-17T11:38:20;95171.16;;;28.35;57.13
30110;BME280;14965;50.660;13.226;2023-08-17T11:40:46;95182.22;;;28.39;55.54
30110;BME280;14965;50.660;13.226;2023-08-17T11:43:13;95171.94;;;28.36;56.10
30110;BME280;14965;50.660;13.226;2023-08-17T11:45:39;95171.16;;;28.35;56.96
30110;BME280;14965;50.660;13.226;2023-08-17T11:48:07;95164.81;;;28.29;55.77
30110;BME280;14965;50.660;13.226;2023-08-17T11:50:33;95168.81;;;27.99;55.93
30110;BME280;14965;50.660;13.226;2023-08-17T11:52:59;95165.13;;;27.78;56.14
30110;BME280;14965;50.660;13.226;2023-08-17T11:55:25;95163.13;;;27.60;55.93
30110;BME280;14965;50.660;13.226;2023-08-17T11:57:52;95163.88;;;27.47;55.37
30110;BME280;14965;50.660;13.226;2023-08-17T12:00:21;95156.13;;;27.47;57.05
30110;BME280;14965;50.660;13.226;2023-08-17T12:02:48;95169.66;;;27.54;56.44
30110;BME280;14965;50.660;13.226;2023-08-17T12:05:19;95181.34;;;27.51;56.62
30110;BME280;14965;50.660;13.226;2023-08-17T12:07:45;95178.41;;;27.56;57.11
30110;BME280;14965;50.660;13.226;2023-08-17T12:10:11;95181.56;;;27.66;56.66
30110;BME280;14965;50.660;13.226;2023-08-17T12:12:37;95168.94;;;27.80;56.82
30110;BME280;14965;50.660;13.226;2023-08-17T12:15:04;95167.19;;;27.91;56.62
30110;BME280;14965;50.660;13.226;2023-08-17T12:17:30;95169.03;;;28.01;55.55
30110;BME280;14965;50.660;13.226;2023-08-17T12:19:58;95173.41;;;28.02;53.76
30110;BME280;14965;50.660;13.226;2023-08-17T12:22:26;95157.44;;;27.99;54.30
30110;BME280;14965;50.660;13.226;2023-08-17T12:24:52;95159.97;;;27.90;54.95
30110;BME280;14965;50.660;13.226;2023-08-17T12:27:21;95162.94;;;27.84;55.15
30110;BME280;14965;50.660;13.226;2023-08-17T12:29:47;95166.75;;;27.73;54.97
30110;BME280;14965;50.660;13.226;2023-08-17T12:32:14;95166.28;;;27.69;54.78
30110;BME280;14965;50.660;13.226;2023-08-17T12:34:40;95163.66;;;27.71;53.91
30110;BME280;14965;50.660;13.226;2023-08-17T12:37:08;95161.84;;;27.74;53.10
30110;BME280;14965;50.660;13.226;2023-08-17T12:39:35;95158.13;;;27.79;54.65
30110;BME280;14965;50.660;13.226;2023-08-17T12:42:02;95157.91;;;27.90;55.59